Janesville, Wisconsin
Current Conditions -  °F | °C
As of 3:35 AM on Saturday 25 Oct 2014 (Local Time) from KJVL Reporting Station
Haze Haze  
Wind Chill: 15°   Ceiling: 1300
Heat Index: 15°   Visibility: 4mi
Dew Point: 13°   Wind: 6mph
Humidity: 88%   Direction: 260°W
Pressure: 29.89"   Gusts: NA
Location:  42.69°N, 89.02°W
Report Text: KJVL 250835Z AUTO 26005KT 4SM BR SCT005 OVC013 15/13 A2989 RMK AO2
Loading
Personal Weather Stations






























Interactive Weather Map
Tropical Storm Tracking
New forecast layout! Learn more

10-Day Weather Forecast

Advertisements
Track Severe Weather on mobile